createdAt,value
2023-04-29T00:00:59.331Z,100.00
2023-04-29T00:02:22.813Z,100.00
2023-04-29T00:03:44.573Z,100.00
2023-04-29T00:05:07.000Z,100.00
2023-04-29T00:06:29.381Z,100.00
2023-04-29T00:07:51.274Z,100.00
2023-04-29T00:09:14.188Z,100.00
2023-04-29T00:10:37.806Z,100.00
2023-04-29T00:12:00.689Z,100.00
2023-04-29T00:13:23.586Z,100.00
2023-04-29T00:14:45.423Z,100.00
2023-04-29T00:16:10.256Z,100.00
2023-04-29T00:17:34.464Z,100.00
2023-04-29T00:18:56.432Z,100.00
2023-04-29T00:20:19.577Z,100.00
2023-04-29T00:21:42.414Z,100.00
2023-04-29T00:23:04.502Z,100.00
2023-04-29T00:24:27.316Z,100.00
2023-04-29T00:25:49.206Z,100.00
2023-04-29T00:27:12.164Z,100.00
2023-04-29T00:28:35.144Z,100.00
2023-04-29T00:29:57.389Z,100.00
2023-04-29T00:31:20.227Z,100.00
2023-04-29T00:32:44.622Z,100.00
2023-04-29T00:34:07.488Z,100.00
2023-04-29T00:35:30.622Z,100.00
2023-04-29T00:36:53.423Z,100.00
2023-04-29T00:38:15.519Z,100.00
2023-04-29T00:39:38.500Z,100.00
2023-04-29T00:41:01.438Z,100.00
2023-04-29T00:42:24.743Z,100.00
2023-04-29T00:43:48.594Z,100.00
2023-04-29T00:45:11.588Z,100.00
2023-04-29T00:46:34.872Z,100.00
2023-04-29T00:47:58.389Z,100.00
2023-04-29T00:49:21.708Z,100.00
2023-04-29T00:50:44.635Z,100.00
2023-04-29T00:52:08.192Z,100.00
2023-04-29T00:53:31.624Z,100.00
2023-04-29T00:54:53.488Z,100.00
2023-04-29T00:56:17.188Z,100.00
2023-04-29T00:57:39.330Z,100.00
2023-04-29T00:59:03.655Z,100.00
2023-04-29T01:00:26.826Z,100.00
2023-04-29T01:01:48.798Z,100.00
2023-04-29T01:03:13.927Z,100.00
2023-04-29T01:04:37.026Z,100.00
2023-04-29T01:06:10.064Z,100.00
2023-04-29T01:07:42.872Z,100.00
2023-04-29T01:09:21.720Z,100.00
2023-04-29T01:10:49.923Z,100.00
2023-04-29T01:12:20.736Z,100.00
2023-04-29T01:13:47.080Z,100.00
2023-04-29T01:15:18.293Z,100.00
2023-04-29T01:16:43.813Z,100.00
2023-04-29T01:18:12.040Z,100.00
2023-04-29T01:19:45.592Z,100.00
2023-04-29T01:21:09.239Z,100.00
2023-04-29T01:22:31.105Z,100.00
2023-04-29T01:23:57.160Z,100.00
2023-04-29T01:25:20.091Z,100.00
2023-04-29T01:26:46.046Z,100.00
2023-04-29T01:28:15.725Z,100.00
2023-04-29T01:29:44.130Z,100.00
2023-04-29T01:31:09.673Z,100.00
2023-04-29T01:32:41.847Z,100.00
2023-04-29T01:34:10.280Z,100.00
2023-04-29T01:35:47.559Z,100.00
2023-04-29T01:37:17.412Z,100.00
2023-04-29T01:38:45.725Z,100.00
2023-04-29T01:40:17.235Z,100.00
2023-04-29T01:41:44.779Z,100.00
2023-04-29T01:43:11.828Z,100.00
2023-04-29T01:44:35.945Z,100.00
2023-04-29T01:45:59.321Z,100.00
2023-04-29T01:47:22.620Z,100.00
2023-04-29T01:48:46.333Z,100.00
2023-04-29T01:50:10.034Z,100.00
2023-04-29T01:51:34.128Z,100.00
2023-04-29T01:52:55.976Z,100.00
2023-04-29T01:54:18.912Z,100.00
2023-04-29T01:55:43.795Z,100.00
2023-04-29T01:57:05.713Z,100.00
2023-04-29T01:58:29.481Z,100.00
2023-04-29T01:59:51.637Z,100.00
2023-04-29T02:01:15.251Z,100.00
2023-04-29T02:02:37.408Z,100.00
2023-04-29T02:04:00.675Z,100.00
2023-04-29T02:05:23.620Z,100.00
2023-04-29T02:06:46.555Z,100.00
2023-04-29T02:08:08.523Z,100.00
2023-04-29T02:09:31.375Z,100.00
2023-04-29T02:10:56.929Z,100.00
2023-04-29T02:12:19.768Z,100.00
2023-04-29T02:13:42.618Z,100.00
2023-04-29T02:15:06.790Z,100.00
2023-04-29T02:16:29.632Z,100.00
2023-04-29T02:17:51.856Z,100.00
2023-04-29T02:19:14.675Z,100.00
2023-04-29T02:20:36.590Z,100.00
2023-04-29T02:21:59.404Z,100.00
2023-04-29T02:23:22.372Z,100.00
2023-04-29T02:24:45.233Z,100.00
2023-04-29T02:26:09.743Z,100.00
2023-04-29T02:27:32.514Z,100.00
2023-04-29T02:28:57.188Z,100.00
2023-04-29T02:30:20.021Z,100.00
2023-04-29T02:31:42.851Z,100.00
2023-04-29T02:33:06.341Z,100.00
2023-04-29T02:34:32.050Z,100.00
2023-04-29T02:35:54.956Z,100.00
2023-04-29T02:37:16.807Z,100.00
2023-04-29T02:38:39.608Z,100.00
2023-04-29T02:40:03.595Z,100.00
2023-04-29T02:41:27.776Z,100.00
2023-04-29T02:42:49.624Z,100.00
2023-04-29T02:44:12.541Z,100.00
2023-04-29T02:45:35.364Z,100.00
2023-04-29T02:46:58.505Z,100.00
2023-04-29T02:48:21.353Z,100.00
2023-04-29T02:49:43.250Z,100.00
2023-04-29T02:51:06.638Z,100.00
2023-04-29T02:52:29.448Z,100.00
2023-04-29T02:53:52.273Z,100.00
2023-04-29T02:55:15.130Z,100.00
2023-04-29T02:56:39.437Z,100.00
2023-04-29T02:58:02.299Z,100.00
2023-04-29T02:59:25.196Z,100.00
2023-04-29T03:00:47.060Z,100.00
2023-04-29T03:02:09.912Z,100.00
2023-04-29T03:03:32.864Z,100.00
2023-04-29T03:04:54.832Z,100.00
2023-04-29T03:06:17.938Z,100.00
2023-04-29T03:07:39.808Z,100.00
2023-04-29T03:09:02.669Z,100.00
2023-04-29T03:10:25.466Z,100.00
2023-04-29T03:11:49.572Z,100.00
2023-04-29T03:13:11.514Z,100.00
2023-04-29T03:14:34.303Z,100.00
2023-04-29T03:15:58.643Z,100.00
2023-04-29T03:17:21.466Z,100.00
2023-04-29T03:18:45.145Z,100.00
2023-04-29T03:20:08.284Z,100.00
2023-04-29T03:21:31.149Z,100.00
2023-04-29T03:22:53.916Z,100.00
2023-04-29T03:24:16.810Z,100.00
2023-04-29T03:25:38.672Z,100.00
2023-04-29T03:27:02.761Z,100.00
2023-04-29T03:28:25.567Z,100.00
2023-04-29T03:29:49.424Z,100.00
2023-04-29T03:31:12.744Z,100.00
2023-04-29T03:32:34.673Z,100.00
2023-04-29T03:33:57.473Z,100.00
2023-04-29T03:35:20.395Z,100.00
2023-04-29T03:36:43.223Z,100.00
2023-04-29T03:38:05.308Z,100.00
2023-04-29T03:39:32.223Z,100.00
2023-04-29T03:40:54.180Z,100.00
2023-04-29T03:42:18.618Z,100.00
2023-04-29T03:43:43.998Z,100.00
2023-04-29T03:45:07.007Z,100.00
2023-04-29T03:46:29.944Z,100.00
2023-04-29T03:47:53.471Z,100.00
2023-04-29T03:49:16.323Z,100.00
2023-04-29T03:50:38.238Z,100.00
2023-04-29T03:52:01.193Z,100.00
2023-04-29T03:53:24.531Z,100.00
2023-04-29T03:54:47.434Z,100.00
2023-04-29T03:56:10.203Z,100.00
2023-04-29T03:57:34.302Z,100.00
2023-04-29T03:58:57.101Z,100.00
2023-04-29T04:00:19.013Z,100.00
2023-04-29T04:01:42.438Z,100.00
2023-04-29T04:03:05.643Z,100.00
2023-04-29T04:04:28.060Z,100.00
2023-04-29T04:05:51.306Z,100.00
2023-04-29T04:07:13.150Z,100.00
2023-04-29T04:08:36.020Z,100.00
2023-04-29T04:09:57.871Z,100.00
2023-04-29T04:11:20.674Z,100.00
2023-04-29T04:12:44.411Z,100.00
2023-04-29T04:14:07.508Z,100.00
2023-04-29T04:15:29.320Z,100.00
2023-04-29T04:16:52.122Z,100.00
2023-04-29T04:18:13.997Z,100.00
2023-04-29T04:19:36.947Z,100.00
2023-04-29T04:20:58.809Z,100.00
2023-04-29T04:22:21.584Z,100.00
2023-04-29T04:23:44.348Z,100.00
2023-04-29T04:25:07.569Z,100.00
2023-04-29T04:26:30.525Z,100.00
2023-04-29T04:27:54.621Z,100.00
2023-04-29T04:29:16.755Z,100.00
2023-04-29T04:30:39.511Z,100.00
2023-04-29T04:32:01.383Z,100.00
2023-04-29T04:33:24.259Z,100.00
2023-04-29T04:34:46.136Z,100.00
2023-04-29T04:36:09.164Z,100.00
2023-04-29T04:37:31.991Z,100.00
2023-04-29T04:38:53.885Z,100.00
2023-04-29T04:40:17.060Z,100.00
2023-04-29T04:41:38.938Z,100.00
2023-04-29T04:43:03.101Z,100.00
2023-04-29T04:44:24.993Z,100.00
2023-04-29T04:45:48.129Z,100.00
2023-04-29T04:47:11.550Z,100.00
2023-04-29T04:48:34.385Z,100.00
2023-04-29T04:49:57.261Z,100.00
2023-04-29T04:51:19.057Z,100.00
2023-04-29T04:52:42.657Z,100.00
2023-04-29T04:54:05.467Z,100.00
2023-04-29T04:55:28.299Z,100.00
2023-04-29T04:56:52.120Z,100.00
2023-04-29T04:58:16.457Z,100.00
2023-04-29T04:59:39.274Z,100.00
2023-04-29T05:01:02.168Z,100.00
2023-04-29T05:02:25.359Z,100.00
2023-04-29T05:03:48.345Z,100.00
2023-04-29T05:05:11.292Z,100.00
2023-04-29T05:06:34.344Z,100.00
2023-04-29T05:07:56.161Z,100.00
2023-04-29T05:09:19.411Z,100.00
2023-04-29T05:10:42.368Z,100.00
2023-04-29T05:12:04.475Z,100.00
2023-04-29T05:13:28.632Z,100.00
2023-04-29T05:14:52.975Z,100.00
2023-04-29T05:16:17.344Z,100.00
2023-04-29T05:17:40.918Z,100.00
2023-04-29T05:19:03.776Z,100.00
2023-04-29T05:20:26.759Z,100.00
2023-04-29T05:21:49.575Z,100.00
2023-04-29T05:23:11.405Z,100.00
2023-04-29T05:24:34.256Z,100.00
2023-04-29T05:25:57.075Z,100.00
2023-04-29T05:27:20.265Z,100.00
2023-04-29T05:28:44.378Z,100.00
2023-04-29T05:30:07.313Z,100.00
2023-04-29T05:31:30.137Z,100.00
2023-04-29T05:32:53.157Z,100.00
2023-04-29T05:34:17.193Z,100.00
2023-04-29T05:35:40.086Z,100.00
2023-04-29T05:37:02.892Z,100.00
2023-04-29T05:38:29.245Z,100.00
2023-04-29T05:39:52.240Z,100.00
2023-04-29T05:41:15.191Z,100.00
2023-04-29T05:42:37.438Z,100.00
2023-04-29T05:44:01.588Z,100.00
2023-04-29T05:45:23.384Z,100.00
2023-04-29T05:46:46.470Z,100.00
2023-04-29T05:48:09.308Z,100.00
2023-04-29T05:49:32.279Z,100.00
2023-04-29T05:50:55.031Z,100.00
2023-04-29T05:52:16.888Z,100.00
2023-04-29T05:53:40.620Z,100.00
2023-04-29T05:55:02.551Z,100.00
2023-04-29T05:56:25.852Z,100.00
2023-04-29T05:57:47.700Z,100.00
2023-04-29T05:59:12.056Z,100.00
2023-04-29T06:00:34.383Z,100.00
2023-04-29T06:01:57.397Z,100.00
2023-04-29T06:03:20.400Z,100.00
2023-04-29T06:04:43.482Z,100.00
2023-04-29T06:06:05.507Z,100.00
2023-04-29T06:07:28.719Z,100.00
2023-04-29T06:08:51.601Z,100.00
2023-04-29T06:10:15.250Z,100.00
2023-04-29T06:11:37.291Z,100.00
2023-04-29T06:13:00.217Z,100.00
2023-04-29T06:14:23.624Z,100.00
2023-04-29T06:15:46.552Z,100.00
2023-04-29T06:17:09.426Z,100.00
2023-04-29T06:18:32.209Z,100.00
2023-04-29T06:19:55.298Z,100.00
2023-04-29T06:21:17.190Z,100.00
2023-04-29T06:22:39.993Z,100.00
2023-04-29T06:24:03.069Z,100.00
2023-04-29T06:25:25.920Z,100.00
2023-04-29T06:26:48.792Z,100.00
2023-04-29T06:28:10.690Z,100.00
2023-04-29T06:29:34.890Z,100.00
2023-04-29T06:30:57.758Z,100.00
2023-04-29T06:32:20.790Z,100.00
2023-04-29T06:33:43.614Z,100.00
2023-04-29T06:35:07.376Z,100.00
2023-04-29T06:36:29.264Z,100.00
2023-04-29T06:37:52.766Z,100.00
2023-04-29T06:39:14.622Z,100.00
2023-04-29T06:40:37.494Z,100.00
2023-04-29T06:42:00.264Z,100.00
2023-04-29T06:43:22.068Z,100.00
2023-04-29T06:44:46.332Z,100.00
2023-04-29T06:46:09.332Z,100.00
2023-04-29T06:47:33.019Z,100.00
2023-04-29T06:48:55.899Z,100.00
2023-04-29T06:50:19.045Z,100.00
2023-04-29T06:51:42.829Z,100.00
2023-04-29T06:53:05.882Z,100.00
2023-04-29T06:54:28.602Z,100.00
2023-04-29T06:55:52.137Z,99.73
2023-04-29T06:57:14.981Z,99.56
2023-04-29T06:58:38.421Z,98.77
2023-04-29T07:00:03.793Z,97.23
2023-04-29T07:01:26.784Z,96.50
2023-04-29T07:02:49.686Z,96.78
2023-04-29T07:04:13.049Z,96.40
2023-04-29T07:05:35.854Z,98.03
2023-04-29T07:06:59.513Z,96.76
2023-04-29T07:08:23.185Z,96.29
2023-04-29T07:09:46.078Z,95.29
2023-04-29T07:11:08.874Z,95.71
2023-04-29T07:12:31.683Z,95.86
2023-04-29T07:13:54.608Z,95.13
2023-04-29T07:15:19.075Z,94.84
2023-04-29T07:16:42.135Z,95.87
2023-04-29T07:18:05.269Z,95.16
2023-04-29T07:19:28.174Z,95.09
2023-04-29T07:20:52.771Z,95.78
2023-04-29T07:22:15.553Z,95.96
2023-04-29T07:23:38.365Z,96.00
2023-04-29T07:25:01.429Z,95.66
2023-04-29T07:26:24.239Z,95.14
2023-04-29T07:27:46.163Z,94.90
2023-04-29T07:29:08.932Z,95.42
2023-04-29T07:30:33.213Z,94.42
2023-04-29T07:31:56.031Z,94.39
2023-04-29T07:33:17.995Z,92.89
2023-04-29T07:34:41.095Z,93.15
2023-04-29T07:36:04.659Z,92.09
2023-04-29T07:37:27.656Z,92.74
2023-04-29T07:38:50.490Z,92.58
2023-04-29T07:40:14.506Z,91.21
2023-04-29T07:41:37.285Z,89.56
2023-04-29T07:43:04.692Z,90.61
2023-04-29T07:44:27.486Z,90.31
2023-04-29T07:45:51.600Z,90.50
2023-04-29T07:47:14.469Z,90.10
2023-04-29T07:48:39.240Z,89.86
2023-04-29T07:50:02.755Z,89.62
2023-04-29T07:51:25.526Z,89.68
2023-04-29T07:52:48.288Z,89.57
2023-04-29T07:54:11.082Z,88.19
2023-04-29T07:55:33.839Z,89.22
2023-04-29T07:56:57.910Z,89.09
2023-04-29T07:58:20.652Z,89.38
2023-04-29T07:59:43.433Z,89.06
2023-04-29T08:01:08.652Z,89.11
2023-04-29T08:02:30.822Z,88.80
2023-04-29T08:03:53.948Z,89.79
2023-04-29T08:05:17.500Z,89.33
2023-04-29T08:06:41.725Z,89.66
2023-04-29T08:08:04.748Z,89.70
2023-04-29T08:09:27.568Z,89.74
2023-04-29T08:10:49.394Z,90.97
2023-04-29T08:12:12.169Z,91.85
2023-04-29T08:13:35.006Z,91.97
2023-04-29T08:14:57.817Z,91.09
2023-04-29T08:16:24.466Z,90.96
2023-04-29T08:17:47.410Z,92.39
2023-04-29T08:19:10.258Z,92.86
2023-04-29T08:20:32.161Z,93.14
2023-04-29T08:21:54.992Z,94.19
2023-04-29T08:23:16.813Z,93.93
2023-04-29T08:24:39.614Z,94.96
2023-04-29T08:26:03.447Z,95.62
2023-04-29T08:27:27.028Z,97.12
2023-04-29T08:28:49.922Z,96.75
2023-04-29T08:30:13.818Z,95.94
2023-04-29T08:31:38.024Z,95.63
2023-04-29T08:32:59.939Z,97.05
2023-04-29T08:34:22.821Z,96.04
2023-04-29T08:35:45.600Z,96.85
2023-04-29T08:37:08.469Z,96.03
2023-04-29T08:38:32.010Z,96.18
2023-04-29T08:39:54.873Z,96.08
2023-04-29T08:41:17.708Z,95.59
2023-04-29T08:42:39.827Z,94.66
2023-04-29T08:44:02.729Z,94.20
2023-04-29T08:45:26.430Z,95.25
2023-04-29T08:46:51.076Z,94.69
2023-04-29T08:48:14.605Z,94.25
2023-04-29T08:49:38.393Z,93.73
2023-04-29T08:51:02.438Z,94.12
2023-04-29T08:52:24.454Z,93.78
2023-04-29T08:53:47.240Z,92.66
2023-04-29T08:55:10.485Z,92.71
2023-04-29T08:56:34.054Z,92.28
2023-04-29T08:57:58.415Z,92.16
2023-04-29T08:59:22.183Z,94.23
2023-04-29T09:00:46.273Z,94.54
2023-04-29T09:02:17.101Z,92.99
2023-04-29T09:03:46.013Z,93.38
2023-04-29T09:05:11.203Z,92.82
2023-04-29T09:06:34.239Z,92.90
2023-04-29T09:07:59.684Z,93.94
2023-04-29T09:09:22.031Z,94.28
2023-04-29T09:10:45.040Z,93.38
2023-04-29T09:12:07.803Z,92.23
2023-04-29T09:13:32.117Z,93.92
2023-04-29T09:14:55.426Z,93.92
2023-04-29T09:16:19.157Z,92.38
2023-04-29T09:17:45.435Z,92.38
2023-04-29T09:19:08.386Z,92.25
2023-04-29T09:20:31.640Z,92.15
2023-04-29T09:21:56.709Z,93.67
2023-04-29T09:23:19.484Z,92.84
2023-04-29T09:24:43.662Z,92.65
2023-04-29T09:26:05.614Z,91.82
2023-04-29T09:27:29.287Z,91.54
2023-04-29T09:29:08.747Z,90.17
2023-04-29T09:30:31.667Z,88.64
2023-04-29T09:31:54.726Z,88.17
2023-04-29T09:33:17.938Z,88.45
2023-04-29T09:34:41.310Z,89.51
2023-04-29T09:36:04.331Z,91.71
2023-04-29T09:37:28.798Z,90.07
2023-04-29T09:38:54.001Z,90.13
2023-04-29T09:40:30.439Z,89.67
2023-04-29T09:42:02.640Z,88.75
2023-04-29T09:43:26.222Z,89.16
2023-04-29T09:44:49.224Z,88.59
2023-04-29T09:46:12.955Z,90.18
2023-04-29T09:47:36.363Z,88.94
2023-04-29T09:48:59.702Z,89.39
2023-04-29T09:50:22.498Z,89.01
2023-04-29T09:51:54.536Z,88.36
2023-04-29T09:53:31.390Z,86.88
2023-04-29T09:55:06.117Z,86.97
2023-04-29T09:56:31.183Z,87.18
2023-04-29T09:57:54.162Z,87.41
2023-04-29T09:59:17.936Z,87.63
2023-04-29T10:00:41.452Z,85.44
2023-04-29T10:02:18.019Z,85.93
2023-04-29T10:03:43.003Z,86.01
2023-04-29T10:05:10.684Z,88.74
2023-04-29T10:06:33.647Z,87.29
2023-04-29T10:07:57.444Z,87.67
2023-04-29T10:09:21.421Z,88.10
2023-04-29T10:10:46.391Z,88.04
2023-04-29T10:12:09.440Z,88.88
2023-04-29T10:13:35.474Z,90.03
2023-04-29T10:15:04.486Z,89.47
2023-04-29T10:16:30.897Z,88.74
2023-04-29T10:17:57.673Z,87.69
2023-04-29T10:19:27.667Z,87.37
2023-04-29T10:20:52.069Z,86.98
2023-04-29T10:22:23.233Z,86.04
2023-04-29T10:23:46.667Z,86.72
2023-04-29T10:25:11.475Z,87.64
2023-04-29T10:26:37.150Z,88.90
2023-04-29T10:28:01.678Z,89.15
2023-04-29T10:29:28.459Z,90.31
2023-04-29T10:30:52.292Z,91.15
2023-04-29T10:32:16.368Z,90.08
2023-04-29T10:33:44.502Z,90.10
2023-04-29T10:35:09.953Z,89.81
2023-04-29T10:36:34.881Z,88.56
2023-04-29T10:38:02.232Z,87.66
2023-04-29T10:39:30.613Z,86.44
2023-04-29T10:40:54.896Z,85.32
2023-04-29T10:42:23.193Z,83.87
2023-04-29T10:43:46.922Z,83.56
2023-04-29T10:45:20.642Z,84.20
2023-04-29T10:46:43.542Z,83.21
2023-04-29T10:48:13.249Z,84.06
2023-04-29T10:49:36.103Z,83.82
2023-04-29T10:51:06.352Z,82.20
2023-04-29T10:52:29.523Z,83.35
2023-04-29T10:54:00.377Z,82.59
2023-04-29T10:55:24.779Z,82.68
2023-04-29T10:56:50.478Z,81.87
2023-04-29T10:58:37.580Z,78.21
2023-04-29T11:00:00.330Z,78.66
2023-04-29T11:01:42.408Z,78.98
2023-04-29T11:03:07.290Z,77.89
2023-04-29T11:04:32.665Z,77.51
2023-04-29T11:06:08.883Z,78.00
2023-04-29T11:07:33.112Z,81.55
2023-04-29T11:09:02.630Z,81.80
2023-04-29T11:10:37.341Z,80.66
2023-04-29T11:12:03.267Z,79.00
2023-04-29T11:13:26.768Z,78.88
2023-04-29T11:14:51.922Z,78.22
2023-04-29T11:16:14.407Z,77.16
2023-04-29T11:17:38.656Z,76.15
2023-04-29T11:19:05.340Z,76.01
2023-04-29T11:20:28.208Z,76.01
2023-04-29T11:22:05.405Z,74.97
2023-04-29T11:23:29.593Z,74.24
2023-04-29T11:24:55.281Z,74.57
2023-04-29T11:26:21.516Z,74.24
2023-04-29T11:27:46.501Z,75.92
2023-04-29T11:29:10.550Z,76.86
2023-04-29T11:30:33.936Z,77.50
2023-04-29T11:32:00.126Z,78.61
2023-04-29T11:33:23.186Z,77.39
2023-04-29T11:34:46.039Z,75.61
2023-04-29T11:36:10.657Z,75.03
2023-04-29T11:37:34.320Z,74.46
2023-04-29T11:38:58.445Z,74.23
2023-04-29T11:40:21.417Z,74.04
2023-04-29T11:41:44.214Z,75.26
2023-04-29T11:43:07.141Z,74.22
2023-04-29T11:44:30.190Z,73.13
2023-04-29T11:45:54.187Z,71.81
2023-04-29T11:47:17.063Z,71.39
2023-04-29T11:48:47.403Z,71.63
2023-04-29T11:50:11.111Z,71.71
2023-04-29T11:51:34.116Z,72.16
2023-04-29T11:52:58.844Z,72.55
2023-04-29T11:54:23.310Z,73.82
2023-04-29T11:55:46.598Z,72.70
2023-04-29T11:57:11.923Z,74.17
2023-04-29T11:58:34.862Z,74.20
2023-04-29T11:59:58.661Z,74.17
2023-04-29T12:01:21.536Z,73.32
2023-04-29T12:02:46.181Z,72.61
2023-04-29T12:04:09.765Z,74.24
2023-04-29T12:05:33.386Z,73.92
2023-04-29T12:06:58.459Z,73.86
2023-04-29T12:08:21.481Z,74.19
2023-04-29T12:09:46.332Z,73.37
2023-04-29T12:11:09.364Z,75.29
2023-04-29T12:12:36.329Z,75.37
2023-04-29T12:14:02.533Z,75.50
2023-04-29T12:15:27.148Z,75.04
2023-04-29T12:16:50.041Z,73.89
2023-04-29T12:18:13.650Z,72.70
2023-04-29T12:19:38.832Z,72.21
2023-04-29T12:21:02.191Z,72.70
2023-04-29T12:22:32.319Z,71.32
2023-04-29T12:23:55.572Z,72.27
2023-04-29T12:25:21.092Z,73.29
2023-04-29T12:26:46.289Z,72.84
2023-04-29T12:28:13.376Z,72.59
2023-04-29T12:29:37.159Z,73.45
2023-04-29T12:31:00.179Z,73.88
2023-04-29T12:32:25.210Z,74.74
2023-04-29T12:33:48.071Z,74.42
2023-04-29T12:35:17.058Z,73.70
2023-04-29T12:36:43.323Z,72.57
2023-04-29T12:38:06.341Z,74.07
2023-04-29T12:39:29.729Z,75.59
2023-04-29T12:40:54.158Z,77.75
2023-04-29T12:42:16.888Z,77.74
2023-04-29T12:43:39.726Z,77.38
2023-04-29T12:45:02.623Z,76.96
2023-04-29T12:46:26.071Z,77.29
2023-04-29T12:47:48.914Z,77.51
2023-04-29T12:49:12.470Z,77.64
2023-04-29T12:50:37.495Z,77.47
2023-04-29T12:52:00.391Z,76.01
2023-04-29T12:53:23.778Z,74.90
2023-04-29T12:54:46.839Z,74.65
2023-04-29T12:56:13.268Z,74.43
2023-04-29T12:57:37.910Z,73.84
2023-04-29T12:59:06.570Z,73.25
2023-04-29T13:00:29.408Z,73.27
2023-04-29T13:01:51.408Z,75.48
2023-04-29T13:03:15.130Z,75.97
2023-04-29T13:04:38.127Z,74.59
2023-04-29T13:06:02.696Z,75.33
2023-04-29T13:07:25.525Z,74.66
2023-04-29T13:08:48.451Z,74.84
2023-04-29T13:10:13.429Z,74.44
2023-04-29T13:11:37.540Z,74.44
2023-04-29T13:13:00.828Z,74.19
2023-04-29T13:14:23.705Z,75.72
2023-04-29T13:15:46.608Z,76.26
2023-04-29T13:17:10.869Z,76.38
2023-04-29T13:18:34.949Z,77.80
2023-04-29T13:19:59.497Z,77.00
2023-04-29T13:21:22.424Z,75.74
2023-04-29T13:22:45.282Z,75.87
2023-04-29T13:24:08.407Z,75.77
2023-04-29T13:25:31.233Z,74.77
2023-04-29T13:26:54.514Z,74.82
2023-04-29T13:28:17.359Z,74.78
2023-04-29T13:29:40.219Z,75.13
2023-04-29T13:31:03.056Z,75.40
2023-04-29T13:32:25.929Z,75.29
2023-04-29T13:33:48.778Z,74.93
2023-04-29T13:35:11.960Z,75.14
2023-04-29T13:36:34.923Z,74.48
2023-04-29T13:37:57.909Z,73.68
2023-04-29T13:39:23.008Z,73.30
2023-04-29T13:40:47.142Z,72.29
2023-04-29T13:42:15.323Z,72.42
2023-04-29T13:43:40.578Z,73.15
2023-04-29T13:45:03.954Z,73.73
2023-04-29T13:46:28.928Z,74.48
2023-04-29T13:48:07.197Z,75.16
2023-04-29T13:49:58.552Z,74.91
2023-04-29T13:52:01.488Z,75.22
2023-04-29T13:53:24.687Z,75.46
2023-04-29T14:00:55.053Z,75.28
2023-04-29T14:02:24.370Z,74.58
2023-04-29T14:03:49.141Z,75.33
2023-04-29T14:05:12.559Z,75.17
2023-04-29T14:06:35.488Z,75.73
2023-04-29T14:07:58.291Z,75.63
2023-04-29T14:09:21.482Z,75.91
2023-04-29T14:10:44.322Z,75.11
2023-04-29T14:12:07.493Z,75.27
2023-04-29T14:13:31.617Z,74.53
2023-04-29T14:14:54.922Z,75.08
2023-04-29T14:16:17.975Z,75.06
2023-04-29T14:17:40.936Z,74.11
2023-04-29T14:19:04.228Z,73.75
2023-04-29T14:20:27.166Z,73.75
2023-04-29T14:21:49.951Z,73.58
2023-04-29T14:23:12.715Z,73.27
2023-04-29T14:24:35.500Z,73.90
2023-04-29T14:26:16.616Z,74.34
2023-04-29T14:27:41.135Z,72.68
2023-04-29T14:29:05.417Z,72.87
2023-04-29T14:30:28.292Z,72.95
2023-04-29T14:31:51.189Z,72.69
2023-04-29T14:33:14.075Z,73.10
2023-04-29T14:34:36.987Z,73.23
2023-04-29T14:36:00.898Z,73.52
2023-04-29T14:37:23.720Z,73.07
2023-04-29T14:38:46.575Z,72.29
2023-04-29T14:40:10.323Z,72.23
2023-04-29T14:41:33.100Z,71.90
2023-04-29T14:42:56.133Z,71.90
2023-04-29T14:44:20.774Z,71.22
2023-04-29T14:45:44.092Z,70.95
2023-04-29T14:47:07.169Z,70.91
2023-04-29T14:48:30.098Z,70.76
2023-04-29T14:49:52.961Z,71.06
2023-04-29T14:51:15.936Z,71.45
2023-04-29T14:52:38.760Z,71.84
2023-04-29T14:54:01.598Z,72.02
2023-04-29T14:55:23.482Z,72.97
2023-04-29T14:56:46.276Z,72.39
2023-04-29T14:58:10.279Z,72.46
2023-04-29T14:59:34.426Z,71.69
2023-04-29T15:00:56.630Z,71.68
2023-04-29T15:02:19.619Z,72.63
2023-04-29T15:03:44.864Z,73.72
2023-04-29T15:05:08.627Z,74.12
2023-04-29T15:06:32.413Z,74.30
2023-04-29T15:07:55.432Z,74.25
2023-04-29T15:09:18.319Z,74.08
2023-04-29T15:10:41.085Z,74.28
2023-04-29T15:12:04.550Z,73.95
2023-04-29T15:13:27.665Z,74.00
2023-04-29T15:14:53.530Z,74.02
2023-04-29T15:16:15.490Z,73.46
2023-04-29T15:17:38.531Z,73.04
2023-04-29T15:19:01.897Z,72.85
2023-04-29T15:20:23.798Z,72.61
2023-04-29T15:21:46.740Z,72.35
2023-04-29T15:23:09.644Z,72.89
2023-04-29T15:24:32.466Z,72.58
2023-04-29T15:25:55.623Z,71.66
2023-04-29T15:27:18.504Z,72.00
2023-04-29T15:28:43.162Z,72.54
2023-04-29T15:30:08.615Z,72.17
2023-04-29T15:31:31.628Z,71.88
2023-04-29T15:32:55.389Z,71.79
2023-04-29T15:34:18.427Z,71.82
2023-04-29T15:35:41.375Z,71.81
2023-04-29T15:37:04.173Z,71.58
2023-04-29T15:38:26.961Z,72.25
2023-04-29T15:39:50.207Z,71.88
2023-04-29T15:41:13.041Z,71.64
2023-04-29T15:42:35.978Z,71.36
2023-04-29T15:43:59.046Z,71.19
2023-04-29T15:45:23.201Z,72.45
2023-04-29T15:46:46.043Z,71.41
2023-04-29T15:48:08.930Z,71.05
2023-04-29T15:49:31.752Z,71.38
2023-04-29T15:50:54.537Z,71.68
2023-04-29T15:52:16.408Z,71.03
2023-04-29T15:53:39.195Z,71.58
2023-04-29T15:55:02.076Z,71.20
2023-04-29T15:56:25.664Z,70.82
2023-04-29T15:57:48.559Z,71.46
2023-04-29T15:59:11.373Z,71.56
2023-04-29T16:00:35.592Z,71.77
2023-04-29T16:01:58.389Z,72.11
2023-04-29T16:03:21.275Z,71.64
2023-04-29T16:04:44.135Z,71.67
2023-04-29T16:06:06.945Z,72.34
2023-04-29T16:07:29.741Z,72.44
2023-04-29T16:08:52.548Z,72.79
2023-04-29T16:10:15.514Z,72.51
2023-04-29T16:11:37.549Z,71.76
2023-04-29T16:13:00.729Z,71.67
2023-04-29T16:14:23.598Z,71.41
2023-04-29T16:15:47.878Z,71.24
2023-04-29T16:17:10.681Z,71.75
2023-04-29T16:18:33.721Z,71.49
2023-04-29T16:19:56.809Z,71.46
2023-04-29T16:21:19.648Z,71.12
2023-04-29T16:22:42.554Z,70.73
2023-04-29T16:24:05.666Z,70.54
2023-04-29T16:25:28.476Z,71.14
2023-04-29T16:26:51.449Z,71.36
2023-04-29T16:28:14.274Z,71.11
2023-04-29T16:29:37.086Z,71.15
2023-04-29T16:31:01.308Z,71.07
2023-04-29T16:32:24.170Z,71.31
2023-04-29T16:33:47.004Z,71.52
2023-04-29T16:35:11.146Z,72.01
2023-04-29T16:36:33.988Z,72.31
2023-04-29T16:37:56.934Z,72.01
2023-04-29T16:39:20.126Z,72.07
2023-04-29T16:40:42.891Z,72.42
2023-04-29T16:42:05.888Z,72.87
2023-04-29T16:43:28.759Z,72.95
2023-04-29T16:44:51.613Z,72.74
2023-04-29T16:46:15.866Z,73.51
2023-04-29T16:47:40.810Z,73.75
2023-04-29T16:49:03.912Z,73.31
2023-04-29T16:50:27.005Z,73.83
2023-04-29T16:51:49.992Z,74.02
2023-04-29T16:53:13.499Z,74.38
2023-04-29T16:54:36.448Z,74.27
2023-04-29T16:55:59.214Z,73.61
2023-04-29T16:57:22.224Z,73.37
2023-04-29T16:58:45.094Z,72.91
2023-04-29T17:00:10.238Z,73.39
2023-04-29T17:01:34.720Z,73.33
2023-04-29T17:02:58.477Z,73.35
2023-04-29T17:04:21.526Z,73.75
2023-04-29T17:05:44.713Z,73.77
2023-04-29T17:07:09.338Z,73.22
2023-04-29T17:08:32.333Z,73.30
2023-04-29T17:09:55.538Z,72.88
2023-04-29T17:11:18.919Z,72.92
2023-04-29T17:12:40.835Z,73.18
2023-04-29T17:14:03.664Z,73.01
2023-04-29T17:15:26.453Z,73.17
2023-04-29T17:16:50.648Z,72.77
2023-04-29T17:18:13.939Z,72.93
2023-04-29T17:19:36.888Z,73.08
2023-04-29T17:21:00.752Z,73.59
2023-04-29T17:22:23.953Z,73.88
2023-04-29T17:23:46.941Z,74.11
2023-04-29T17:25:10.357Z,73.79
2023-04-29T17:26:33.329Z,73.71
2023-04-29T17:27:56.480Z,73.27
2023-04-29T17:29:19.260Z,73.60
2023-04-29T17:30:42.129Z,73.41
2023-04-29T17:32:11.024Z,73.52
2023-04-29T17:33:35.395Z,72.94
2023-04-29T17:34:58.449Z,73.38
2023-04-29T17:36:22.112Z,73.27
2023-04-29T17:37:45.070Z,73.43
2023-04-29T17:39:09.987Z,73.29
2023-04-29T17:40:32.822Z,74.04
2023-04-29T17:41:55.804Z,74.24
2023-04-29T17:43:18.593Z,74.34
2023-04-29T17:44:41.526Z,74.23
2023-04-29T17:46:04.587Z,74.69
2023-04-29T17:47:29.005Z,74.68
2023-04-29T17:48:51.797Z,74.41
2023-04-29T17:50:15.017Z,74.18
2023-04-29T17:51:37.945Z,74.29
2023-04-29T17:53:00.898Z,74.20
2023-04-29T17:54:23.730Z,74.26
2023-04-29T17:55:47.093Z,73.91